sensor_id;sensor_type;location;lat;lon;timestamp;P1;durP1;ratioP1;P2;durP2;ratioP2
27269;SDS011;14769;56.934;24.176;2022-08-11T00:00:58;6.13;;;5.18;;
27269;SDS011;14769;56.934;24.176;2022-08-11T00:02:05;7.15;;;4.93;;
27269;SDS011;14769;56.934;24.176;2022-08-11T00:03:15;6.55;;;5.00;;
27269;SDS011;14769;56.934;24.176;2022-08-11T00:04:22;8.10;;;5.20;;
27269;SDS011;14769;56.934;24.176;2022-08-11T00:05:26;9.60;;;6.50;;
27269;SDS011;14769;56.934;24.176;2022-08-11T00:06:31;10.68;;;6.57;;
27269;SDS011;14769;56.934;24.176;2022-08-11T00:07:49;10.80;;;8.15;;
27269;SDS011;14769;56.934;24.176;2022-08-11T00:08:53;13.73;;;7.43;;
27269;SDS011;14769;56.934;24.176;2022-08-11T00:09:58;12.25;;;8.27;;
27269;SDS011;14769;56.934;24.176;2022-08-11T00:11:02;13.88;;;8.50;;
27269;SDS011;14769;56.934;24.176;2022-08-11T00:12:15;7.93;;;6.90;;
27269;SDS011;14769;56.934;24.176;2022-08-11T00:13:19;10.02;;;6.80;;
27269;SDS011;14769;56.934;24.176;2022-08-11T00:14:27;9.90;;;6.93;;
27269;SDS011;14769;56.934;24.176;2022-08-11T00:15:39;11.43;;;7.30;;
27269;SDS011;14769;56.934;24.176;2022-08-11T00:16:44;10.02;;;7.95;;
27269;SDS011;14769;56.934;24.176;2022-08-11T00:17:59;11.25;;;8.75;;
27269;SDS011;14769;56.934;24.176;2022-08-11T00:19:03;13.27;;;8.98;;
27269;SDS011;14769;56.934;24.176;2022-08-11T00:20:06;12.43;;;9.25;;
27269;SDS011;14769;56.934;24.176;2022-08-11T00:21:16;11.70;;;8.20;;
27269;SDS011;14769;56.934;24.176;2022-08-11T00:22:42;11.57;;;9.18;;
27269;SDS011;14769;56.934;24.176;2022-08-11T00:24:56;12.30;;;8.18;;
27269;SDS011;14769;56.934;24.176;2022-08-11T00:26:05;10.05;;;7.80;;
27269;SDS011;14769;56.934;24.176;2022-08-11T00:27:08;14.23;;;8.82;;
27269;SDS011;14769;56.934;24.176;2022-08-11T00:29:30;10.65;;;7.57;;
27269;SDS011;14769;56.934;24.176;2022-08-11T00:30:39;14.50;;;8.20;;
27269;SDS011;14769;56.934;24.176;2022-08-11T00:31:45;11.38;;;8.30;;
27269;SDS011;14769;56.934;24.176;2022-08-11T00:33:59;12.23;;;7.97;;
27269;SDS011;14769;56.934;24.176;2022-08-11T00:35:03;12.85;;;8.80;;
27269;SDS011;14769;56.934;24.176;2022-08-11T00:36:43;13.65;;;8.75;;
27269;SDS011;14769;56.934;24.176;2022-08-11T00:37:51;16.20;;;9.63;;
27269;SDS011;14769;56.934;24.176;2022-08-11T00:39:02;11.98;;;8.43;;
27269;SDS011;14769;56.934;24.176;2022-08-11T00:40:06;11.68;;;9.20;;
27269;SDS011;14769;56.934;24.176;2022-08-11T00:42:52;12.93;;;8.25;;
27269;SDS011;14769;56.934;24.176;2022-08-11T00:46:49;11.68;;;8.00;;
27269;SDS011;14769;56.934;24.176;2022-08-11T00:48:02;12.32;;;8.43;;
27269;SDS011;14769;56.934;24.176;2022-08-11T00:50:55;11.57;;;8.80;;
27269;SDS011;14769;56.934;24.176;2022-08-11T00:57:32;19.40;;;9.52;;
27269;SDS011;14769;56.934;24.176;2022-08-11T01:27:55;11.70;;;7.22;;
27269;SDS011;14769;56.934;24.176;2022-08-11T02:00:14;55.97;;;28.70;;
27269;SDS011;14769;56.934;24.176;2022-08-11T02:03:53;17.65;;;11.13;;
27269;SDS011;14769;56.934;24.176;2022-08-11T02:05:02;19.50;;;12.05;;
27269;SDS011;14769;56.934;24.176;2022-08-11T02:06:21;22.08;;;12.73;;
27269;SDS011;14769;56.934;24.176;2022-08-11T02:08:02;19.10;;;12.85;;
27269;SDS011;14769;56.934;24.176;2022-08-11T02:11:39;27.73;;;15.40;;
27269;SDS011;14769;56.934;24.176;2022-08-11T02:17:46;20.17;;;12.95;;
27269;SDS011;14769;56.934;24.176;2022-08-11T02:21:24;14.98;;;10.27;;
27269;SDS011;14769;56.934;24.176;2022-08-11T02:25:06;15.02;;;10.32;;
27269;SDS011;14769;56.934;24.176;2022-08-11T02:26:25;14.10;;;9.43;;
27269;SDS011;14769;56.934;24.176;2022-08-11T02:28:03;11.07;;;8.05;;
27269;SDS011;14769;56.934;24.176;2022-08-11T02:31:08;16.63;;;9.00;;
27269;SDS011;14769;56.934;24.176;2022-08-11T02:33:42;11.48;;;8.60;;
27269;SDS011;14769;56.934;24.176;2022-08-11T02:36:07;15.57;;;8.02;;
27269;SDS011;14769;56.934;24.176;2022-08-11T02:43:02;10.35;;;7.40;;
27269;SDS011;14769;56.934;24.176;2022-08-11T02:45:48;13.02;;;7.55;;
27269;SDS011;14769;56.934;24.176;2022-08-11T02:47:05;12.85;;;7.88;;
27269;SDS011;14769;56.934;24.176;2022-08-11T02:52:13;11.48;;;7.18;;
27269;SDS011;14769;56.934;24.176;2022-08-11T02:55:03;12.15;;;7.43;;
27269;SDS011;14769;56.934;24.176;2022-08-11T02:59:53;16.17;;;7.03;;
27269;SDS011;14769;56.934;24.176;2022-08-11T03:01:20;9.73;;;7.15;;
27269;SDS011;14769;56.934;24.176;2022-08-11T03:04:35;10.82;;;6.88;;
27269;SDS011;14769;56.934;24.176;2022-08-11T03:06:07;13.48;;;7.35;;
27269;SDS011;14769;56.934;24.176;2022-08-11T03:07:30;13.25;;;6.90;;
27269;SDS011;14769;56.934;24.176;2022-08-11T03:10:33;12.50;;;7.88;;
27269;SDS011;14769;56.934;24.176;2022-08-11T03:13:53;11.88;;;6.45;;
27269;SDS011;14769;56.934;24.176;2022-08-11T03:16:12;11.38;;;6.68;;
27269;SDS011;14769;56.934;24.176;2022-08-11T03:17:54;15.07;;;7.28;;
27269;SDS011;14769;56.934;24.176;2022-08-11T03:19:42;13.57;;;6.55;;
27269;SDS011;14769;56.934;24.176;2022-08-11T03:24:04;8.73;;;5.75;;
27269;SDS011;14769;56.934;24.176;2022-08-11T03:25:33;11.15;;;5.55;;
27269;SDS011;14769;56.934;24.176;2022-08-11T03:28:36;6.35;;;4.90;;
27269;SDS011;14769;56.934;24.176;2022-08-11T03:32:43;11.93;;;5.60;;
27269;SDS011;14769;56.934;24.176;2022-08-11T03:34:25;7.20;;;5.32;;
27269;SDS011;14769;56.934;24.176;2022-08-11T03:36:12;9.27;;;5.05;;
27269;SDS011;14769;56.934;24.176;2022-08-11T03:38:13;5.88;;;5.20;;
27269;SDS011;14769;56.934;24.176;2022-08-11T03:40:06;9.63;;;5.25;;
27269;SDS011;14769;56.934;24.176;2022-08-11T03:41:57;10.40;;;5.60;;
27269;SDS011;14769;56.934;24.176;2022-08-11T03:46:33;8.40;;;5.90;;
27269;SDS011;14769;56.934;24.176;2022-08-11T03:50:10;12.07;;;5.82;;
27269;SDS011;14769;56.934;24.176;2022-08-11T03:51:19;9.60;;;5.90;;
27269;SDS011;14769;56.934;24.176;2022-08-11T03:54:40;11.13;;;5.72;;
27269;SDS011;14769;56.934;24.176;2022-08-11T03:58:54;10.13;;;6.03;;
27269;SDS011;14769;56.934;24.176;2022-08-11T04:10:36;7.95;;;5.53;;
27269;SDS011;14769;56.934;24.176;2022-08-11T04:12:01;13.63;;;7.68;;
27269;SDS011;14769;56.934;24.176;2022-08-11T04:18:49;11.90;;;9.95;;
27269;SDS011;14769;56.934;24.176;2022-08-11T04:30:07;20.38;;;15.48;;
27269;SDS011;14769;56.934;24.176;2022-08-11T04:37:31;20.08;;;15.45;;
27269;SDS011;14769;56.934;24.176;2022-08-11T04:39:12;23.45;;;16.70;;
27269;SDS011;14769;56.934;24.176;2022-08-11T04:45:39;15.73;;;12.95;;
27269;SDS011;14769;56.934;24.176;2022-08-11T04:47:15;16.38;;;12.43;;
27269;SDS011;14769;56.934;24.176;2022-08-11T04:56:23;10.25;;;7.07;;
27269;SDS011;14769;56.934;24.176;2022-08-11T04:59:57;11.50;;;6.82;;
27269;SDS011;14769;56.934;24.176;2022-08-11T05:03:02;11.85;;;6.72;;
27269;SDS011;14769;56.934;24.176;2022-08-11T05:07:58;13.75;;;5.95;;
27269;SDS011;14769;56.934;24.176;2022-08-11T05:09:22;13.68;;;6.35;;
27269;SDS011;14769;56.934;24.176;2022-08-11T05:10:47;11.15;;;6.00;;
27269;SDS011;14769;56.934;24.176;2022-08-11T05:12:22;15.45;;;6.00;;
27269;SDS011;14769;56.934;24.176;2022-08-11T05:13:49;13.50;;;6.00;;
27269;SDS011;14769;56.934;24.176;2022-08-11T05:15:26;13.60;;;5.47;;
27269;SDS011;14769;56.934;24.176;2022-08-11T05:17:08;11.73;;;5.38;;
27269;SDS011;14769;56.934;24.176;2022-08-11T05:18:32;7.97;;;5.20;;
27269;SDS011;14769;56.934;24.176;2022-08-11T05:19:56;17.75;;;5.18;;
27269;SDS011;14769;56.934;24.176;2022-08-11T05:21:34;10.25;;;4.65;;
27269;SDS011;14769;56.934;24.176;2022-08-11T05:23:01;14.45;;;4.82;;
27269;SDS011;14769;56.934;24.176;2022-08-11T05:24:29;14.25;;;4.70;;
27269;SDS011;14769;56.934;24.176;2022-08-11T05:26:01;12.23;;;5.00;;
27269;SDS011;14769;56.934;24.176;2022-08-11T05:27:44;10.75;;;5.25;;
27269;SDS011;14769;56.934;24.176;2022-08-11T05:31:21;10.15;;;4.82;;
27269;SDS011;14769;56.934;24.176;2022-08-11T05:33:08;13.75;;;5.28;;
27269;SDS011;14769;56.934;24.176;2022-08-11T05:34:50;10.35;;;4.85;;
27269;SDS011;14769;56.934;24.176;2022-08-11T05:37:42;12.20;;;4.65;;
27269;SDS011;14769;56.934;24.176;2022-08-11T05:39:06;14.55;;;5.10;;
27269;SDS011;14769;56.934;24.176;2022-08-11T05:40:37;15.40;;;4.78;;
27269;SDS011;14769;56.934;24.176;2022-08-11T05:42:00;10.90;;;4.47;;
27269;SDS011;14769;56.934;24.176;2022-08-11T05:43:30;9.68;;;4.50;;
27269;SDS011;14769;56.934;24.176;2022-08-11T05:45:14;16.52;;;4.80;;
27269;SDS011;14769;56.934;24.176;2022-08-11T05:46:56;14.15;;;4.43;;
27269;SDS011;14769;56.934;24.176;2022-08-11T05:48:17;11.10;;;4.35;;
27269;SDS011;14769;56.934;24.176;2022-08-11T05:51:01;15.27;;;4.43;;
27269;SDS011;14769;56.934;24.176;2022-08-11T05:52:30;13.13;;;4.05;;
27269;SDS011;14769;56.934;24.176;2022-08-11T05:53:58;19.90;;;4.32;;
27269;SDS011;14769;56.934;24.176;2022-08-11T05:55:29;18.80;;;3.83;;
27269;SDS011;14769;56.934;24.176;2022-08-11T05:57:03;23.00;;;4.32;;
27269;SDS011;14769;56.934;24.176;2022-08-11T05:58:07;17.00;;;4.35;;
27269;SDS011;14769;56.934;24.176;2022-08-11T05:59:15;13.70;;;4.43;;
27269;SDS011;14769;56.934;24.176;2022-08-11T06:00:18;13.45;;;4.13;;
27269;SDS011;14769;56.934;24.176;2022-08-11T06:01:28;5.50;;;2.42;;
27269;SDS011;14769;56.934;24.176;2022-08-11T06:02:33;18.38;;;3.20;;
27269;SDS011;14769;56.934;24.176;2022-08-11T06:03:52;12.52;;;3.10;;
27269;SDS011;14769;56.934;24.176;2022-08-11T06:05:16;5.93;;;2.53;;
27269;SDS011;14769;56.934;24.176;2022-08-11T06:06:20;7.10;;;2.30;;
27269;SDS011;14769;56.934;24.176;2022-08-11T06:07:26;8.73;;;2.17;;
27269;SDS011;14769;56.934;24.176;2022-08-11T06:08:49;7.90;;;1.80;;
27269;SDS011;14769;56.934;24.176;2022-08-11T06:09:57;9.38;;;2.30;;
27269;SDS011;14769;56.934;24.176;2022-08-11T06:11:02;10.88;;;2.17;;
27269;SDS011;14769;56.934;24.176;2022-08-11T06:12:06;6.72;;;2.10;;
27269;SDS011;14769;56.934;24.176;2022-08-11T06:13:16;8.63;;;2.08;;
27269;SDS011;14769;56.934;24.176;2022-08-11T06:14:19;19.77;;;2.88;;
27269;SDS011;14769;56.934;24.176;2022-08-11T06:15:22;20.25;;;3.65;;
27269;SDS011;14769;56.934;24.176;2022-08-11T06:16:26;17.70;;;3.13;;
27269;SDS011;14769;56.934;24.176;2022-08-11T06:17:29;19.20;;;3.45;;
27269;SDS011;14769;56.934;24.176;2022-08-11T06:18:44;10.05;;;3.22;;
27269;SDS011;14769;56.934;24.176;2022-08-11T06:19:47;19.08;;;3.40;;
27269;SDS011;14769;56.934;24.176;2022-08-11T06:20:52;37.67;;;4.72;;
27269;SDS011;14769;56.934;24.176;2022-08-11T06:21:56;24.33;;;4.05;;
27269;SDS011;14769;56.934;24.176;2022-08-11T06:23:03;15.02;;;2.33;;
27269;SDS011;14769;56.934;24.176;2022-08-11T06:24:11;8.18;;;1.90;;
27269;SDS011;14769;56.934;24.176;2022-08-11T06:25:14;7.50;;;1.70;;
27269;SDS011;14769;56.934;24.176;2022-08-11T06:26:17;6.97;;;1.92;;
27269;SDS011;14769;56.934;24.176;2022-08-11T06:27:20;9.00;;;1.90;;
27269;SDS011;14769;56.934;24.176;2022-08-11T06:28:34;11.48;;;2.50;;
27269;SDS011;14769;56.934;24.176;2022-08-11T06:29:45;15.48;;;2.50;;
27269;SDS011;14769;56.934;24.176;2022-08-11T06:30:55;9.38;;;2.10;;
27269;SDS011;14769;56.934;24.176;2022-08-11T06:32:01;7.18;;;2.30;;
27269;SDS011;14769;56.934;24.176;2022-08-11T06:33:07;4.57;;;1.60;;
27269;SDS011;14769;56.934;24.176;2022-08-11T06:36:01;3.70;;;1.90;;
27269;SDS011;14769;56.934;24.176;2022-08-11T06:38:39;8.35;;;2.13;;
27269;SDS011;14769;56.934;24.176;2022-08-11T06:40:08;10.15;;;2.00;;
27269;SDS011;14769;56.934;24.176;2022-08-11T06:41:37;4.97;;;2.17;;
27269;SDS011;14769;56.934;24.176;2022-08-11T06:42:57;19.75;;;3.55;;
27269;SDS011;14769;56.934;24.176;2022-08-11T06:44:18;7.95;;;2.00;;
27269;SDS011;14769;56.934;24.176;2022-08-11T06:46:52;4.43;;;1.70;;
27269;SDS011;14769;56.934;24.176;2022-08-11T06:47:56;8.10;;;2.40;;
27269;SDS011;14769;56.934;24.176;2022-08-11T06:49:01;4.72;;;2.05;;
27269;SDS011;14769;56.934;24.176;2022-08-11T06:50:04;4.45;;;2.08;;
27269;SDS011;14769;56.934;24.176;2022-08-11T06:51:26;9.02;;;2.17;;
27269;SDS011;14769;56.934;24.176;2022-08-11T06:52:34;7.38;;;2.00;;
27269;SDS011;14769;56.934;24.176;2022-08-11T06:53:52;5.70;;;1.90;;
27269;SDS011;14769;56.934;24.176;2022-08-11T06:55:08;10.18;;;2.20;;
27269;SDS011;14769;56.934;24.176;2022-08-11T06:56:34;10.73;;;2.70;;
27269;SDS011;14769;56.934;24.176;2022-08-11T06:58:17;6.45;;;1.95;;
27269;SDS011;14769;56.934;24.176;2022-08-11T06:59:41;5.20;;;1.85;;
27269;SDS011;14769;56.934;24.176;2022-08-11T07:01:14;5.47;;;1.90;;
27269;SDS011;14769;56.934;24.176;2022-08-11T07:02:23;4.38;;;1.90;;
27269;SDS011;14769;56.934;24.176;2022-08-11T07:03:32;8.02;;;2.08;;
27269;SDS011;14769;56.934;24.176;2022-08-11T07:07:28;12.43;;;2.38;;
27269;SDS011;14769;56.934;24.176;2022-08-11T07:13:09;7.88;;;2.63;;
27269;SDS011;14769;56.934;24.176;2022-08-11T07:14:52;11.88;;;2.30;;
27269;SDS011;14769;56.934;24.176;2022-08-11T07:16:15;5.53;;;2.47;;
27269;SDS011;14769;56.934;24.176;2022-08-11T07:17:26;9.30;;;2.05;;
27269;SDS011;14769;56.934;24.176;2022-08-11T07:18:32;5.40;;;2.10;;
27269;SDS011;14769;56.934;24.176;2022-08-11T07:19:56;6.35;;;2.10;;
27269;SDS011;14769;56.934;24.176;2022-08-11T07:21:21;11.82;;;2.17;;
27269;SDS011;14769;56.934;24.176;2022-08-11T07:23:04;10.23;;;2.47;;
27269;SDS011;14769;56.934;24.176;2022-08-11T07:24:31;9.60;;;2.13;;
27269;SDS011;14769;56.934;24.176;2022-08-11T07:26:03;10.55;;;2.88;;
27269;SDS011;14769;56.934;24.176;2022-08-11T07:27:35;9.20;;;2.10;;
27269;SDS011;14769;56.934;24.176;2022-08-11T07:29:04;15.93;;;2.45;;
27269;SDS011;14769;56.934;24.176;2022-08-11T07:30:08;10.07;;;2.25;;
27269;SDS011;14769;56.934;24.176;2022-08-11T07:31:13;7.20;;;1.95;;
27269;SDS011;14769;56.934;24.176;2022-08-11T07:32:26;7.35;;;1.95;;
27269;SDS011;14769;56.934;24.176;2022-08-11T07:33:31;5.43;;;1.95;;
27269;SDS011;14769;56.934;24.176;2022-08-11T07:35:11;10.27;;;2.20;;
27269;SDS011;14769;56.934;24.176;2022-08-11T07:36:16;5.45;;;2.20;;
27269;SDS011;14769;56.934;24.176;2022-08-11T07:37:18;8.25;;;2.13;;
27269;SDS011;14769;56.934;24.176;2022-08-11T07:38:24;5.65;;;1.92;;
27269;SDS011;14769;56.934;24.176;2022-08-11T07:39:47;8.85;;;2.00;;
27269;SDS011;14769;56.934;24.176;2022-08-11T07:40:50;7.82;;;1.90;;
27269;SDS011;14769;56.934;24.176;2022-08-11T07:41:54;6.80;;;1.70;;
27269;SDS011;14769;56.934;24.176;2022-08-11T07:42:58;6.72;;;2.38;;
27269;SDS011;14769;56.934;24.176;2022-08-11T07:44:02;7.35;;;2.97;;
27269;SDS011;14769;56.934;24.176;2022-08-11T07:45:11;7.30;;;2.25;;
27269;SDS011;14769;56.934;24.176;2022-08-11T07:46:40;8.73;;;2.30;;
27269;SDS011;14769;56.934;24.176;2022-08-11T07:48:02;5.32;;;1.83;;
27269;SDS011;14769;56.934;24.176;2022-08-11T07:49:23;13.15;;;2.00;;
27269;SDS011;14769;56.934;24.176;2022-08-11T07:52:06;6.03;;;2.00;;
27269;SDS011;14769;56.934;24.176;2022-08-11T07:54:55;11.90;;;2.25;;
27269;SDS011;14769;56.934;24.176;2022-08-11T07:56:03;8.50;;;1.83;;
27269;SDS011;14769;56.934;24.176;2022-08-11T07:57:09;10.02;;;1.73;;
27269;SDS011;14769;56.934;24.176;2022-08-11T07:58:54;9.90;;;2.03;;
27269;SDS011;14769;56.934;24.176;2022-08-11T08:00:17;4.35;;;1.80;;
27269;SDS011;14769;56.934;24.176;2022-08-11T08:01:38;5.18;;;1.90;;
27269;SDS011;14769;56.934;24.176;2022-08-11T08:03:00;5.28;;;1.95;;
27269;SDS011;14769;56.934;24.176;2022-08-11T08:04:23;4.50;;;1.70;;
27269;SDS011;14769;56.934;24.176;2022-08-11T08:05:47;5.82;;;1.75;;
27269;SDS011;14769;56.934;24.176;2022-08-11T08:07:30;7.20;;;1.75;;
27269;SDS011;14769;56.934;24.176;2022-08-11T08:08:50;6.07;;;1.70;;
27269;SDS011;14769;56.934;24.176;2022-08-11T08:10:12;9.98;;;1.98;;
27269;SDS011;14769;56.934;24.176;2022-08-11T08:11:36;4.07;;;1.70;;
27269;SDS011;14769;56.934;24.176;2022-08-11T08:12:58;6.18;;;1.48;;
27269;SDS011;14769;56.934;24.176;2022-08-11T08:14:19;3.05;;;1.50;;
27269;SDS011;14769;56.934;24.176;2022-08-11T08:15:41;7.43;;;2.17;;
27269;SDS011;14769;56.934;24.176;2022-08-11T08:18:23;7.72;;;1.58;;
27269;SDS011;14769;56.934;24.176;2022-08-11T08:19:28;6.63;;;1.75;;
27269;SDS011;14769;56.934;24.176;2022-08-11T08:20:33;6.85;;;1.30;;
27269;SDS011;14769;56.934;24.176;2022-08-11T08:21:38;4.10;;;1.55;;
27269;SDS011;14769;56.934;24.176;2022-08-11T08:22:52;3.17;;;1.67;;
27269;SDS011;14769;56.934;24.176;2022-08-11T08:23:57;5.55;;;1.73;;
27269;SDS011;14769;56.934;24.176;2022-08-11T08:24:59;3.08;;;1.45;;
27269;SDS011;14769;56.934;24.176;2022-08-11T08:26:03;2.97;;;1.35;;
27269;SDS011;14769;56.934;24.176;2022-08-11T08:27:27;10.77;;;1.60;;
27269;SDS011;14769;56.934;24.176;2022-08-11T08:28:32;3.22;;;1.80;;
27269;SDS011;14769;56.934;24.176;2022-08-11T08:29:35;3.38;;;1.50;;
27269;SDS011;14769;56.934;24.176;2022-08-11T08:31:17;8.48;;;1.55;;
27269;SDS011;14769;56.934;24.176;2022-08-11T08:32:20;3.80;;;1.50;;
27269;SDS011;14769;56.934;24.176;2022-08-11T08:33:23;8.35;;;2.28;;
27269;SDS011;14769;56.934;24.176;2022-08-11T08:34:27;8.07;;;1.77;;
27269;SDS011;14769;56.934;24.176;2022-08-11T08:35:35;8.77;;;1.95;;
27269;SDS011;14769;56.934;24.176;2022-08-11T08:38:52;8.75;;;2.15;;
27269;SDS011;14769;56.934;24.176;2022-08-11T08:39:57;4.47;;;1.67;;
27269;SDS011;14769;56.934;24.176;2022-08-11T08:41:02;8.45;;;1.80;;
27269;SDS011;14769;56.934;24.176;2022-08-11T08:42:09;10.43;;;2.20;;
27269;SDS011;14769;56.934;24.176;2022-08-11T08:43:14;10.63;;;1.90;;
27269;SDS011;14769;56.934;24.176;2022-08-11T08:44:17;10.57;;;2.10;;
27269;SDS011;14769;56.934;24.176;2022-08-11T08:45:41;6.10;;;1.52;;
27269;SDS011;14769;56.934;24.176;2022-08-11T08:46:47;3.72;;;1.63;;
27269;SDS011;14769;56.934;24.176;2022-08-11T08:47:59;3.92;;;1.60;;
27269;SDS011;14769;56.934;24.176;2022-08-11T08:49:05;5.35;;;1.40;;
27269;SDS011;14769;56.934;24.176;2022-08-11T08:50:11;6.35;;;1.42;;
27269;SDS011;14769;56.934;24.176;2022-08-11T08:51:33;9.15;;;1.65;;
27269;SDS011;14769;56.934;24.176;2022-08-11T08:53:05;5.20;;;1.30;;
27269;SDS011;14769;56.934;24.176;2022-08-11T08:54:13;13.63;;;2.58;;
27269;SDS011;14769;56.934;24.176;2022-08-11T08:55:21;6.88;;;1.52;;
27269;SDS011;14769;56.934;24.176;2022-08-11T08:56:50;6.25;;;1.55;;
27269;SDS011;14769;56.934;24.176;2022-08-11T08:58:00;7.80;;;1.70;;
27269;SDS011;14769;56.934;24.176;2022-08-11T08:59:04;3.75;;;1.80;;
27269;SDS011;14769;56.934;24.176;2022-08-11T09:00:09;7.55;;;1.75;;
27269;SDS011;14769;56.934;24.176;2022-08-11T09:01:22;6.40;;;1.75;;
27269;SDS011;14769;56.934;24.176;2022-08-11T09:02:26;4.22;;;1.65;;
27269;SDS011;14769;56.934;24.176;2022-08-11T09:03:38;5.28;;;1.80;;
27269;SDS011;14769;56.934;24.176;2022-08-11T09:05:02;4.10;;;1.70;;
27269;SDS011;14769;56.934;24.176;2022-08-11T09:06:07;10.68;;;2.22;;
27269;SDS011;14769;56.934;24.176;2022-08-11T09:07:10;13.18;;;1.92;;
27269;SDS011;14769;56.934;24.176;2022-08-11T09:08:16;10.18;;;1.90;;
27269;SDS011;14769;56.934;24.176;2022-08-11T09:09:23;4.88;;;1.50;;
27269;SDS011;14769;56.934;24.176;2022-08-11T09:10:26;6.75;;;1.40;;
27269;SDS011;14769;56.934;24.176;2022-08-11T09:11:39;8.43;;;1.60;;
27269;SDS011;14769;56.934;24.176;2022-08-11T09:12:56;8.32;;;1.75;;
27269;SDS011;14769;56.934;24.176;2022-08-11T09:14:01;5.55;;;1.50;;
27269;SDS011;14769;56.934;24.176;2022-08-11T09:15:17;10.13;;;1.83;;
27269;SDS011;14769;56.934;24.176;2022-08-11T09:16:31;3.75;;;1.30;;
27269;SDS011;14769;56.934;24.176;2022-08-11T09:17:35;4.47;;;1.80;;
27269;SDS011;14769;56.934;24.176;2022-08-11T09:18:45;6.82;;;2.03;;
27269;SDS011;14769;56.934;24.176;2022-08-11T09:19:59;3.20;;;1.33;;
27269;SDS011;14769;56.934;24.176;2022-08-11T09:21:07;10.70;;;1.40;;
27269;SDS011;14769;56.934;24.176;2022-08-11T09:22:11;5.43;;;1.63;;
27269;SDS011;14769;56.934;24.176;2022-08-11T09:23:32;6.72;;;1.80;;
27269;SDS011;14769;56.934;24.176;2022-08-11T09:25:14;9.70;;;2.03;;
27269;SDS011;14769;56.934;24.176;2022-08-11T09:26:35;9.32;;;1.58;;
27269;SDS011;14769;56.934;24.176;2022-08-11T09:27:57;4.20;;;1.40;;
27269;SDS011;14769;56.934;24.176;2022-08-11T09:29:00;7.63;;;1.67;;
27269;SDS011;14769;56.934;24.176;2022-08-11T09:30:05;5.05;;;1.75;;
27269;SDS011;14769;56.934;24.176;2022-08-11T09:31:10;4.82;;;1.30;;
27269;SDS011;14769;56.934;24.176;2022-08-11T09:32:13;2.53;;;1.17;;
27269;SDS011;14769;56.934;24.176;2022-08-11T09:33:22;5.50;;;1.40;;
27269;SDS011;14769;56.934;24.176;2022-08-11T09:34:26;8.13;;;1.48;;
27269;SDS011;14769;56.934;24.176;2022-08-11T09:35:29;8.10;;;1.60;;
27269;SDS011;14769;56.934;24.176;2022-08-11T09:36:34;6.40;;;1.50;;
27269;SDS011;14769;56.934;24.176;2022-08-11T09:37:57;11.90;;;2.00;;
27269;SDS011;14769;56.934;24.176;2022-08-11T09:39:18;7.07;;;1.73;;
27269;SDS011;14769;56.934;24.176;2022-08-11T09:40:43;4.88;;;1.60;;
27269;SDS011;14769;56.934;24.176;2022-08-11T09:41:56;4.45;;;1.42;;
27269;SDS011;14769;56.934;24.176;2022-08-11T09:43:05;3.42;;;1.23;;
27269;SDS011;14769;56.934;24.176;2022-08-11T09:44:32;3.88;;;1.58;;
27269;SDS011;14769;56.934;24.176;2022-08-11T09:45:54;4.95;;;1.33;;
27269;SDS011;14769;56.934;24.176;2022-08-11T09:46:58;2.45;;;1.15;;
27269;SDS011;14769;56.934;24.176;2022-08-11T09:48:01;9.02;;;1.65;;
27269;SDS011;14769;56.934;24.176;2022-08-11T09:49:05;7.45;;;1.58;;
27269;SDS011;14769;56.934;24.176;2022-08-11T09:50:08;3.97;;;1.25;;
27269;SDS011;14769;56.934;24.176;2022-08-11T09:51:12;5.55;;;1.30;;
27269;SDS011;14769;56.934;24.176;2022-08-11T09:52:16;2.97;;;1.35;;
27269;SDS011;14769;56.934;24.176;2022-08-11T09:53:19;3.65;;;1.17;;
27269;SDS011;14769;56.934;24.176;2022-08-11T09:54:41;5.65;;;1.55;;
27269;SDS011;14769;56.934;24.176;2022-08-11T09:55:48;4.30;;;1.38;;
27269;SDS011;14769;56.934;24.176;2022-08-11T09:56:52;6.78;;;1.45;;
27269;SDS011;14769;56.934;24.176;2022-08-11T09:58:14;7.55;;;1.50;;
27269;SDS011;14769;56.934;24.176;2022-08-11T09:59:39;4.85;;;1.35;;
27269;SDS011;14769;56.934;24.176;2022-08-11T10:00:42;3.35;;;1.25;;
27269;SDS011;14769;56.934;24.176;2022-08-11T10:01:47;4.97;;;1.40;;
27269;SDS011;14769;56.934;24.176;2022-08-11T10:02:52;2.65;;;1.50;;
27269;SDS011;14769;56.934;24.176;2022-08-11T10:03:58;4.88;;;1.15;;
27269;SDS011;14769;56.934;24.176;2022-08-11T10:05:04;6.57;;;1.40;;
27269;SDS011;14769;56.934;24.176;2022-08-11T10:06:27;8.30;;;1.77;;
27269;SDS011;14769;56.934;24.176;2022-08-11T10:07:54;4.57;;;1.50;;
27269;SDS011;14769;56.934;24.176;2022-08-11T10:08:57;2.85;;;1.30;;
27269;SDS011;14769;56.934;24.176;2022-08-11T10:10:03;3.95;;;1.58;;
27269;SDS011;14769;56.934;24.176;2022-08-11T10:11:08;5.30;;;1.45;;
27269;SDS011;14769;56.934;24.176;2022-08-11T10:12:15;11.23;;;1.80;;
27269;SDS011;14769;56.934;24.176;2022-08-11T10:13:33;3.42;;;1.20;;
27269;SDS011;14769;56.934;24.176;2022-08-11T10:15:18;3.45;;;1.40;;
27269;SDS011;14769;56.934;24.176;2022-08-11T10:16:39;7.65;;;1.63;;
27269;SDS011;14769;56.934;24.176;2022-08-11T10:17:48;2.85;;;1.83;;
27269;SDS011;14769;56.934;24.176;2022-08-11T10:19:14;3.53;;;1.50;;
27269;SDS011;14769;56.934;24.176;2022-08-11T10:20:22;3.17;;;1.20;;
27269;SDS011;14769;56.934;24.176;2022-08-11T10:21:30;3.80;;;1.20;;
27269;SDS011;14769;56.934;24.176;2022-08-11T10:22:44;6.05;;;1.27;;
27269;SDS011;14769;56.934;24.176;2022-08-11T10:24:25;2.55;;;1.20;;
27269;SDS011;14769;56.934;24.176;2022-08-11T10:25:46;3.40;;;1.48;;
27269;SDS011;14769;56.934;24.176;2022-08-11T10:28:11;2.50;;;1.40;;
27269;SDS011;14769;56.934;24.176;2022-08-11T10:29:36;3.22;;;1.35;;
27269;SDS011;14769;56.934;24.176;2022-08-11T10:31:00;8.68;;;1.45;;
27269;SDS011;14769;56.934;24.176;2022-08-11T10:32:28;5.63;;;1.30;;
27269;SDS011;14769;56.934;24.176;2022-08-11T10:34:00;6.65;;;1.65;;
27269;SDS011;14769;56.934;24.176;2022-08-11T10:35:09;5.35;;;1.38;;
27269;SDS011;14769;56.934;24.176;2022-08-11T10:36:14;6.90;;;1.27;;
27269;SDS011;14769;56.934;24.176;2022-08-11T10:37:22;4.95;;;1.30;;
27269;SDS011;14769;56.934;24.176;2022-08-11T10:38:45;8.90;;;1.40;;
27269;SDS011;14769;56.934;24.176;2022-08-11T10:39:52;5.85;;;1.60;;
27269;SDS011;14769;56.934;24.176;2022-08-11T10:40:56;7.72;;;1.25;;
27269;SDS011;14769;56.934;24.176;2022-08-11T10:42:18;3.55;;;1.55;;
27269;SDS011;14769;56.934;24.176;2022-08-11T10:43:58;7.38;;;1.30;;
27269;SDS011;14769;56.934;24.176;2022-08-11T10:45:04;5.07;;;1.30;;
27269;SDS011;14769;56.934;24.176;2022-08-11T10:46:31;3.20;;;1.20;;
27269;SDS011;14769;56.934;24.176;2022-08-11T10:47:53;4.20;;;1.50;;
27269;SDS011;14769;56.934;24.176;2022-08-11T10:48:59;4.60;;;1.73;;
27269;SDS011;14769;56.934;24.176;2022-08-11T10:50:09;3.40;;;1.50;;
27269;SDS011;14769;56.934;24.176;2022-08-11T10:51:32;5.22;;;1.60;;
27269;SDS011;14769;56.934;24.176;2022-08-11T10:52:59;6.63;;;1.50;;
27269;SDS011;14769;56.934;24.176;2022-08-11T10:54:21;6.93;;;1.40;;
27269;SDS011;14769;56.934;24.176;2022-08-11T10:55:44;4.72;;;1.30;;
27269;SDS011;14769;56.934;24.176;2022-08-11T10:57:05;5.75;;;1.42;;
27269;SDS011;14769;56.934;24.176;2022-08-11T10:58:28;3.30;;;1.48;;
27269;SDS011;14769;56.934;24.176;2022-08-11T10:59:50;7.20;;;1.52;;
27269;SDS011;14769;56.934;24.176;2022-08-11T11:00:58;8.02;;;1.55;;
27269;SDS011;14769;56.934;24.176;2022-08-11T11:02:01;5.93;;;1.50;;